Airfield :







YOU CAN JOIN US ON...

 
LOGIN :

Register | Disclaimer

   EN    FR    IT 

 









Legend :    VFR   Marginal VFR   IFR   Intensive IFR   Very Intensive IFR
Visi :
Ceiling :
>= 8 km
>= 3000ft
5 to 8 km
1000 to 3000 ft
1500m to 5 km
500 to 1000 ft
800 to 1500m
200 to 500 ft
< 800m
< 200 ft
Symbols :   Thunderstorms  Fog  Heavy snow  Heavy precipitations  Wind > 20 kt






- Airport Elevation : 1009 ft
- IATA code : ORH


KORH - Worcester Regional

CURRENT METAR :
  • 170354Z 36008KT 10SM CLR M06/M19 A3046 RMK AO2 SLP330 T10561189

EXPIRED METARs :
  • 170254Z 36005KT 10SM CLR M06/M18 A3047 RMK AO2 SLP334 T10561183 51007
  • 170154Z 02005KT 10SM CLR M05/M18 A3046 RMK AO2 SLP331 T10501183

TAF KORH
Valid from the 17 at 00:00 until the 18 at 00:00 UTC


162333Z 1700/1724 02003KT P6SM SKC
FM171200 04007KT P6SM SCT015
FM171500 05008KT P6SM BKN015
FM171900 06008KT P6SM BKN015



MET'MAP, your aeronautical weather chart ! - Copyright ORBIFLY December 2007 - Disclaimer

ORBIFLY MET'MAP TEAM :

Programming & Development : Alexandra Zaïnal
Concept & Development : Baudouin d'Aumeries
Co-Development & Prog : Marc-Olivier Méhu
Technical & hardware support : Manuel Goepfert

Contact : metmap@orbifly.com




SOURCES & CREDITS :

   NOAA